Time;durP1;ratioP1;P1;durP2;ratioP2;P2;SDS_P1;SDS_P2;PMS_P1;PMS_P2;Temp;Humidity;BMP_temperature;BMP_pressure;BME280_temperature;BME280_humidity;BME280_pressure;Samples;Min_cycle;Max_cycle;Signal;HPM_P1;HPM_P2
2022/09/20 00:01:54;;;;;;;16.05;8.52;;;;;;;10.51;100.00;102222.28;5361766;27;20055;-78
2022/09/20 00:04:25;;;;;;;14.25;7.53;;;;;;;10.40;100.00;102228.38;5362140;27;20023;-78
2022/09/20 00:06:56;;;;;;;10.25;6.40;;;;;;;10.40;100.00;102223.03;5358310;27;20032;-78
2022/09/20 00:09:28;;;;;;;16.75;8.18;;;;;;;10.36;100.00;102226.84;5339686;27;20073;-78
2022/09/20 00:11:59;;;;;;;15.75;7.95;;;;;;;10.38;100.00;102219.63;5363071;27;20495;-78
2022/09/20 00:14:30;;;;;;;14.55;8.43;;;;;;;10.30;100.00;102220.09;5341192;27;20042;-78
2022/09/20 00:17:02;;;;;;;16.40;8.93;;;;;;;10.30;100.00;102220.09;5357529;27;20075;-78
2022/09/20 00:19:33;;;;;;;20.15;8.00;;;;;;;10.38;100.00;102223.13;5363940;27;20027;-78
2022/09/20 00:22:04;;;;;;;18.27;8.25;;;;;;;10.39;100.00;102219.50;5361140;27;20374;-79
2022/09/20 00:24:36;;;;;;;15.38;8.02;;;;;;;10.47;100.00;102204.78;5346728;27;20031;-78
2022/09/20 00:27:07;;;;;;;16.85;9.20;;;;;;;10.36;100.00;102216.19;5365925;27;20035;-78
2022/09/20 00:29:39;;;;;;;14.10;7.57;;;;;;;10.36;100.00;102218.84;5364605;27;20024;-78
2022/09/20 00:32:11;;;;;;;20.92;8.40;;;;;;;10.41;100.00;102216.72;5340530;27;20023;-78
2022/09/20 00:37:34;;;;;;;15.40;7.43;;;;;;;10.27;100.00;102217.66;5363635;27;20027;-78
2022/09/20 00:40:09;;;;;;;12.52;6.85;;;;;;;10.32;100.00;102223.53;5340908;27;20380;-78
2022/09/20 00:42:40;;;;;;;15.18;7.53;;;;;;;10.29;100.00;102230.88;5365061;27;20116;-78
2022/09/20 00:45:21;;;;;;;16.17;7.28;;;;;;;10.13;100.00;102221.31;5365816;27;20114;-79
2022/09/20 00:48:02;;;;;;;14.43;6.57;;;;;;;10.16;100.00;102222.88;5366437;27;20019;-78
2022/09/20 00:50:42;;;;;;;9.93;5.85;;;;;;;10.26;100.00;102226.63;5345842;27;20442;-78
2022/09/20 00:53:19;;;;;;;17.88;6.97;;;;;;;10.30;100.00;102221.94;5358885;27;20066;-78
2022/09/20 00:55:57;;;;;;;16.85;7.13;;;;;;;10.24;100.00;102223.22;5345874;27;20505;-78
2022/09/20 00:58:35;;;;;;;22.25;8.55;;;;;;;9.96;100.00;102222.44;5364891;27;20171;-78
2022/09/20 01:01:06;;;;;;;12.50;6.82;;;;;;;10.00;100.00;102225.75;5347000;27;20118;-78
2022/09/20 01:03:40;;;;;;;16.40;7.20;;;;;;;9.68;100.00;102227.91;5367400;27;20180;-78
2022/09/20 01:06:15;;;;;;;14.60;6.10;;;;;;;9.70;100.00;102221.53;5364700;27;20019;-78
2022/09/20 01:08:50;;;;;;;15.73;7.35;;;;;;;9.59;100.00;102213.41;5365682;27;20503;-78
2022/09/20 01:11:21;;;;;;;17.25;7.30;;;;;;;9.43;100.00;102213.56;5365308;27;20046;-78
2022/09/20 01:13:52;;;;;;;11.98;6.28;;;;;;;9.53;100.00;102213.81;5366375;27;20094;-78
2022/09/20 01:16:25;;;;;;;18.92;8.10;;;;;;;9.35;100.00;102219.41;5363602;27;20030;-78
2022/09/20 01:19:01;;;;;;;14.73;7.65;;;;;;;9.25;100.00;102215.63;5350279;27;20106;-78
2022/09/20 01:21:33;;;;;;;12.60;6.05;;;;;;;9.46;100.00;102221.38;5365038;27;20102;-78
2022/09/20 01:24:14;;;;;;;15.20;6.97;;;;;;;9.30;100.00;102218.00;5366136;27;20099;-78
2022/09/20 01:26:45;;;;;;;18.00;8.07;;;;;;;9.57;100.00;102210.88;5363727;27;22308;-78
2022/09/20 01:29:35;;;;;;;19.23;8.30;;;;;;;9.67;100.00;102215.56;5365405;27;20441;-78
2022/09/20 01:32:11;;;;;;;16.70;8.57;;;;;;;9.69;100.00;102211.84;5364811;27;20705;-78
2022/09/20 01:34:57;;;;;;;23.25;9.75;;;;;;;9.65;100.00;102221.00;5364830;27;20038;-79
2022/09/20 01:37:42;;;;;;;23.63;8.43;;;;;;;9.69;100.00;102221.66;5363938;27;20033;-79
2022/09/20 01:40:26;;;;;;;18.23;8.52;;;;;;;9.60;100.00;102215.97;5363227;27;20023;-79
2022/09/20 01:43:14;;;;;;;17.20;7.97;;;;;;;9.72;100.00;102222.28;5365146;27;20027;-79
2022/09/20 01:45:48;;;;;;;16.85;8.18;;;;;;;9.68;100.00;102223.47;5364227;27;20264;-79
2022/09/20 01:48:32;;;;;;;15.45;6.45;;;;;;;9.73;100.00;102218.69;5363439;27;20621;-79
2022/09/20 01:51:33;;;;;;;14.30;7.88;;;;;;;9.73;100.00;102215.13;5366749;27;20019;-79
2022/09/20 01:54:22;;;;;;;15.27;8.15;;;;;;;9.77;100.00;102216.66;5362659;27;20047;-79
2022/09/20 01:57:27;;;;;;;16.20;8.05;;;;;;;9.79;100.00;102225.41;5360281;27;20027;-80
2022/09/20 02:00:04;;;;;;;13.32;8.30;;;;;;;9.85;100.00;102219.63;5364114;27;20027;-79
2022/09/20 02:03:18;;;;;;;11.40;7.38;;;;;;;9.90;100.00;102216.66;5344631;27;20126;-79
2022/09/20 02:06:11;;;;;;;19.58;8.07;;;;;;;9.88;100.00;102218.59;5365033;27;20053;-79
2022/09/20 02:09:01;;;;;;;15.98;8.30;;;;;;;9.95;100.00;102222.53;5363371;27;20483;-79
2022/09/20 02:11:54;;;;;;;16.98;7.95;;;;;;;9.96;100.00;102222.44;5364127;27;20088;-79
2022/09/20 02:14:36;;;;;;;27.80;7.95;;;;;;;9.92;100.00;102212.97;5364964;27;20031;-79
2022/09/20 02:17:17;;;;;;;12.52;7.35;;;;;;;9.91;100.00;102223.72;5362325;27;20039;-80
2022/09/20 02:20:06;;;;;;;13.15;7.22;;;;;;;9.93;100.00;102219.97;5361080;27;20042;-79
2022/09/20 02:22:43;;;;;;;17.58;7.20;;;;;;;9.94;100.00;102215.50;5343493;27;20553;-79
2022/09/20 02:25:18;;;;;;;14.55;6.82;;;;;;;10.04;100.00;102219.25;5363757;27;20162;-79
2022/09/20 02:28:07;;;;;;;19.33;6.90;;;;;;;10.06;100.00;102220.00;5363244;27;20034;-79
2022/09/20 02:30:55;;;;;;;14.85;6.97;;;;;;;10.03;100.00;102220.22;5362043;27;20032;-79
2022/09/20 02:33:45;;;;;;;11.93;6.45;;;;;;;10.10;100.00;102216.16;5362980;27;20183;-79
2022/09/20 02:36:39;;;;;;;15.77;7.75;;;;;;;10.05;100.00;102212.13;5365360;27;20035;-79
2022/09/20 02:39:16;;;;;;;18.88;7.13;;;;;;;9.95;100.00;102210.06;5361741;27;20023;-80
2022/09/20 02:41:51;;;;;;;14.65;6.90;;;;;;;10.01;100.00;102219.44;5363576;27;20032;-79
2022/09/20 02:44:45;;;;;;;16.50;7.13;;;;;;;10.07;100.00;102219.03;5366422;27;20030;-79
2022/09/20 02:47:36;;;;;;;15.95;6.80;;;;;;;10.11;100.00;102220.53;5362690;27;20474;-80
2022/09/20 02:50:30;;;;;;;17.17;6.78;;;;;;;10.09;100.00;102233.13;5365209;27;20027;-80
2022/09/20 02:53:31;;;;;;;15.40;7.30;;;;;;;10.05;100.00;102223.63;5361784;27;20027;-79
2022/09/20 02:56:28;;;;;;;12.38;6.68;;;;;;;10.09;100.00;102224.28;5358686;27;20507;-79
2022/09/20 02:59:08;;;;;;;9.93;6.50;;;;;;;10.09;100.00;102221.59;5362144;27;20035;-79
2022/09/20 03:01:56;;;;;;;15.20;7.85;;;;;;;10.10;100.00;102215.28;5362459;27;20031;-79
2022/09/20 03:04:41;;;;;;;14.45;7.80;;;;;;;10.08;100.00;102214.56;5364354;27;20134;-79
2022/09/20 03:07:31;;;;;;;13.60;7.68;;;;;;;10.16;100.00;102201.56;5361301;27;20034;-79
2022/09/20 03:10:30;;;;;;;17.05;7.82;;;;;;;10.21;100.00;102200.28;5364460;27;20445;-79
2022/09/20 03:13:29;;;;;;;15.18;7.07;;;;;;;10.23;100.00;102214.34;5360261;27;20504;-79
2022/09/20 03:16:21;;;;;;;14.48;7.60;;;;;;;10.15;100.00;102191.84;5360834;27;20062;-80
2022/09/20 03:19:22;;;;;;;17.70;7.45;;;;;;;10.18;100.00;102219.13;5366305;27;20038;-79
2022/09/20 03:22:07;;;;;;;11.00;6.32;;;;;;;10.17;100.00;102205.94;5362464;27;20088;-79
2022/09/20 03:24:51;;;;;;;8.30;6.00;;;;;;;10.34;100.00;102215.44;5360631;27;20030;-79
2022/09/20 03:27:31;;;;;;;15.98;8.38;;;;;;;10.13;100.00;102220.41;5361120;27;20033;-79
2022/09/20 03:30:20;;;;;;;12.43;8.05;;;;;;;10.13;100.00;102218.63;5359612;27;20492;-79
2022/09/20 03:33:08;;;;;;;13.90;6.38;;;;;;;10.27;100.00;102216.81;5363383;27;20034;-79
2022/09/20 03:35:45;;;;;;;17.77;8.80;;;;;;;10.12;100.00;102213.41;5364057;27;20023;-79
2022/09/20 03:38:35;;;;;;;15.70;8.85;;;;;;;10.13;100.00;102218.63;5349785;27;28382;-79
2022/09/20 03:41:30;;;;;;;12.38;6.45;;;;;;;10.35;100.00;102223.34;5361780;27;20019;-79
2022/09/20 03:44:44;;;;;;;13.27;6.65;;;;;;;10.37;100.00;102218.75;5362840;27;20080;-79
2022/09/20 03:47:30;;;;;;;19.65;8.45;;;;;;;10.32;100.00;102206.69;5327117;27;20502;-79
2022/09/20 03:50:38;;;;;;;13.63;7.77;;;;;;;10.54;100.00;102225.56;5361276;27;20048;-79
2022/09/20 03:53:47;;;;;;;16.88;8.60;;;;;;;10.44;100.00;102221.84;5342039;27;20034;-79
2022/09/20 03:56:45;;;;;;;12.27;7.03;;;;;;;10.58;100.00;102231.53;5334920;27;20849;-79
2022/09/20 03:59:42;;;;;;;14.27;8.95;;;;;;;10.47;100.00;102226.97;5334054;27;20055;-78
2022/09/20 04:02:19;;;;;;;15.20;8.07;;;;;;;10.54;100.00;102225.56;5356259;27;20210;-79
2022/09/20 04:04:59;;;;;;;15.18;10.18;;;;;;;10.44;100.00;102215.66;5340364;27;20023;-79
2022/09/20 04:07:49;;;;;;;19.23;10.43;;;;;;;10.44;100.00;102221.84;5362601;27;20023;-79
2022/09/20 04:10:34;;;;;;;16.95;9.15;;;;;;;10.35;100.00;102219.81;5360041;27;20085;-79
2022/09/20 04:13:30;;;;;;;20.73;9.75;;;;;;;10.33;100.00;102217.25;5362562;27;20035;-78
2022/09/20 04:16:39;;;;;;;21.13;9.98;;;;;;;10.47;100.00;102205.63;5362295;27;20050;-79
2022/09/20 04:19:37;;;;;;;17.38;9.38;;;;;;;10.50;100.00;102208.09;5358519;27;20356;-78
2022/09/20 04:22:09;;;;;;;19.15;9.18;;;;;;;10.51;100.00;102206.25;5361954;27;20031;-79
2022/09/20 04:24:51;;;;;;;12.30;9.32;;;;;;;10.43;100.00;102203.28;5363287;27;20039;-79
2022/09/20 04:27:49;;;;;;;15.45;7.85;;;;;;;10.58;100.00;102213.72;5360670;27;20031;-79
2022/09/20 04:30:26;;;;;;;20.73;9.75;;;;;;;10.38;100.00;102198.28;5347390;27;20039;-79
2022/09/20 04:33:12;;;;;;;15.07;8.35;;;;;;;10.42;100.00;102206.91;5342050;27;20035;-79
2022/09/20 04:39:00;;;;;;;13.23;7.15;;;;;;;10.69;100.00;102207.59;5361645;27;20472;-79
2022/09/20 04:41:50;;;;;;;11.15;7.28;;;;;;;10.68;100.00;102200.56;5362355;27;20035;-79
2022/09/20 04:44:44;;;;;;;12.40;7.05;;;;;;;10.73;100.00;102213.59;5361238;27;20027;-79
2022/09/20 04:48:13;;;;;;;17.25;9.93;;;;;;;10.63;100.00;102204.53;5362115;27;20032;-80
2022/09/20 04:51:21;;;;;;;13.50;8.10;;;;;;;10.56;100.00;102223.66;5231790;28;20069;-79
2022/09/20 04:54:16;;;;;;;16.38;9.13;;;;;;;10.57;100.00;102227.16;5230362;28;20172;-79
2022/09/20 04:57:09;;;;;;;20.10;10.05;;;;;;;10.45;100.00;102228.91;5361085;27;20159;-78
2022/09/20 04:59:40;;;;;;;16.25;8.60;;;;;;;10.47;100.00;102223.47;5359468;27;20027;-79
2022/09/20 05:02:49;;;;;;;8.98;6.78;;;;;;;10.58;100.00;102228.88;5367183;27;20030;-79
2022/09/20 05:05:57;;;;;;;13.77;7.15;;;;;;;10.57;100.00;102221.81;5364809;27;20454;-78
2022/09/20 05:09:04;;;;;;;14.43;7.90;;;;;;;10.54;100.00;102230.06;5347577;27;20023;-79
2022/09/20 05:12:20;;;;;;;13.40;7.35;;;;;;;10.52;100.00;102232.84;5349952;27;20042;-79
2022/09/20 05:15:04;;;;;;;16.13;8.68;;;;;;;10.34;100.00;102237.66;5354741;27;20054;-79
2022/09/20 05:17:47;;;;;;;14.27;8.07;;;;;;;10.34;100.00;102229.66;5358306;27;20035;-79
2022/09/20 05:20:41;;;;;;;16.58;8.32;;;;;;;10.39;100.00;102240.81;5361554;27;20031;-79
2022/09/20 05:23:21;;;;;;;14.75;6.82;;;;;;;10.59;100.00;102244.78;5360679;27;20023;-79
2022/09/20 05:26:17;;;;;;;12.98;7.88;;;;;;;10.52;100.00;102243.50;5358346;27;20083;-79
2022/09/20 05:29:08;;;;;;;15.30;8.55;;;;;;;10.63;100.00;102245.41;5360700;27;20420;-79
2022/09/20 05:32:00;;;;;;;14.52;8.68;;;;;;;10.57;100.00;102248.50;5359542;27;20065;-78
2022/09/20 05:34:42;;;;;;;13.75;8.15;;;;;;;10.50;100.00;102248.09;5361523;27;20114;-78
2022/09/20 05:37:45;;;;;;;14.65;8.77;;;;;;;10.51;100.00;102251.63;5370562;27;20019;-79
2022/09/20 05:40:44;;;;;;;10.35;7.05;;;;;;;10.66;100.00;102260.34;5363391;27;20023;-79
2022/09/20 05:43:25;;;;;;;13.82;8.05;;;;;;;10.70;100.00;102262.69;5364287;27;20030;-79
2022/09/20 05:46:09;;;;;;;10.38;7.45;;;;;;;10.78;100.00;102263.00;5342529;27;20028;-79
2022/09/20 05:49:10;;;;;;;17.10;9.48;;;;;;;10.75;100.00;102260.56;5362845;27;21792;-79
2022/09/20 05:51:58;;;;;;;15.45;10.20;;;;;;;10.66;100.00;102265.69;5365085;27;20023;-79
2022/09/20 05:54:51;;;;;;;13.50;9.43;;;;;;;10.67;100.00;102265.56;5370093;27;20110;-79
2022/09/20 05:57:43;;;;;;;11.80;8.98;;;;;;;10.57;100.00;102267.19;5336878;27;20466;-80
2022/09/20 06:00:18;;;;;;;12.40;8.95;;;;;;;10.51;100.00;102272.97;5363081;27;20035;-80
2022/09/20 06:03:17;;;;;;;13.15;8.70;;;;;;;10.54;100.00;102275.41;5363294;27;20047;-80
2022/09/20 06:05:48;;;;;;;16.17;9.55;;;;;;;10.50;100.00;102280.13;5344306;27;20065;-80
2022/09/20 06:08:56;;;;;;;13.53;8.20;;;;;;;10.57;100.00;102281.41;5365727;27;20043;-79
2022/09/20 06:12:02;;;;;;;18.77;8.30;;;;;;;10.62;100.00;102285.53;5364950;27;20837;-80
2022/09/20 06:14:51;;;;;;;12.23;8.48;;;;;;;10.57;100.00;102286.72;5342688;27;20031;-80
2022/09/20 06:17:51;;;;;;;14.75;8.25;;;;;;;10.61;100.00;102287.38;5361611;27;20033;-80
2022/09/20 06:20:32;;;;;;;12.80;8.98;;;;;;;10.58;100.00;102291.09;5369846;27;20019;-79
2022/09/20 06:23:04;;;;;;;12.77;8.65;;;;;;;10.59;100.00;102292.81;5371524;27;20019;-79
2022/09/20 06:25:46;;;;;;;14.43;9.45;;;;;;;10.66;100.00;102297.69;5370844;27;20069;-79
2022/09/20 06:28:25;;;;;;;12.98;8.73;;;;;;;10.69;100.00;102293.00;5370127;27;20032;-79
2022/09/20 06:30:56;;;;;;;14.20;9.15;;;;;;;10.69;100.00;102294.81;5353255;27;20026;-80
2022/09/20 06:33:28;;;;;;;14.00;8.43;;;;;;;10.76;100.00;102293.44;5370893;27;20495;-78
2022/09/20 06:42:09;;;;;;;14.77;7.70;;;;;;;10.95;100.00;102301.84;5390569;27;20058;-80
2022/09/20 06:44:42;;;;;;;14.60;7.97;;;;;;;11.03;100.00;102301.31;5391701;27;20042;-80
2022/09/20 06:47:13;;;;;;;11.38;8.00;;;;;;;11.09;100.00;102292.84;5391353;27;20524;-79
2022/09/20 06:49:45;;;;;;;15.80;8.27;;;;;;;11.20;100.00;102289.38;5380777;27;20079;-80
2022/09/20 06:52:20;;;;;;;13.60;8.38;;;;;;;11.32;100.00;102298.34;5352505;27;20051;-80
2022/09/20 06:54:54;;;;;;;12.18;8.40;;;;;;;11.40;100.00;102290.63;5346988;27;20031;-80
2022/09/20 06:57:44;;;;;;;10.55;8.07;;;;;;;11.51;100.00;102297.84;5347397;27;20040;-80
2022/09/20 07:00:16;;;;;;;13.43;7.75;;;;;;;11.45;100.00;102293.81;5336729;27;20056;-79
2022/09/20 07:02:47;;;;;;;9.88;7.03;;;;;;;11.52;100.00;102295.06;5368368;27;20216;-79
2022/09/20 07:05:20;;;;;;;10.52;7.13;;;;;;;11.63;100.00;102296.94;5368982;27;20015;-79
2022/09/20 07:07:57;;;;;;;10.68;7.18;;;;;;;11.65;100.00;102289.66;5369082;27;20519;-80
2022/09/20 07:10:28;;;;;;;9.77;6.93;;;;;;;11.77;100.00;102295.06;5369497;27;20029;-79
2022/09/20 07:13:01;;;;;;;10.55;7.22;;;;;;;12.02;100.00;102297.59;5369366;27;20460;-80
2022/09/20 07:15:33;;;;;;;12.82;7.60;;;;;;;12.23;100.00;102305.81;5369388;27;20019;-80
2022/09/20 07:18:04;;;;;;;8.98;6.10;;;;;;;12.34;100.00;102293.44;5368233;27;20027;-80
2022/09/20 07:20:36;;;;;;;11.43;6.95;;;;;;;12.46;100.00;102298.72;5350702;27;20380;-80
2022/09/20 07:23:07;;;;;;;10.57;6.45;;;;;;;12.60;100.00;102296.75;5369133;27;20440;-80
2022/09/20 07:25:38;;;;;;;8.18;6.25;;;;;;;12.84;100.00;102293.97;5369483;27;20019;-80
2022/09/20 07:28:09;;;;;;;11.57;5.78;;;;;;;12.92;100.00;102299.59;5368711;27;20106;-80
2022/09/20 07:30:41;;;;;;;7.40;5.53;;;;;;;13.26;100.00;102288.81;5369260;27;20043;-80
2022/09/20 07:33:18;;;;;;;9.93;5.78;;;;;;;13.55;100.00;102294.53;5369300;27;20019;-80
2022/09/20 07:35:54;;;;;;;9.73;6.00;;;;;;;13.86;100.00;102288.44;5368968;27;20098;-80
2022/09/20 07:38:25;;;;;;;10.40;5.30;;;;;;;13.88;100.00;102289.16;5348591;27;20023;-80
2022/09/20 07:40:59;;;;;;;7.53;4.72;;;;;;;14.02;100.00;102296.88;5359622;27;20023;-80
2022/09/20 07:43:31;;;;;;;5.45;4.35;;;;;;;14.31;100.00;102289.03;5346984;27;20023;-80
2022/09/20 07:46:02;;;;;;;5.85;4.50;;;;;;;14.33;100.00;102292.44;5347213;27;20121;-80
2022/09/20 07:48:35;;;;;;;9.77;4.38;;;;;;;14.19;100.00;102296.28;5347399;27;20024;-80
2022/09/20 07:51:08;;;;;;;6.25;3.65;;;;;;;14.21;100.00;102295.31;5345449;27;20202;-80
2022/09/20 07:53:40;;;;;;;8.68;4.43;;;;;;;14.32;100.00;102301.50;5328534;27;20032;-80
2022/09/20 07:56:14;;;;;;;9.68;3.95;;;;;;;14.52;100.00;102302.44;5327829;27;20472;-80
2022/09/20 07:58:46;;;;;;;5.97;3.47;;;;;;;14.41;100.00;102301.66;5328728;27;20042;-80
2022/09/20 08:01:19;;;;;;;5.85;4.13;;;;;;;14.70;100.00;102304.53;5362702;27;20058;-80
2022/09/20 08:03:50;;;;;;;6.10;3.80;;;;;;;14.70;100.00;102313.44;5367947;27;20068;-80
2022/09/20 08:06:22;;;;;;;4.82;2.95;;;;;;;14.79;100.00;102317.16;5365264;27;20059;-80
2022/09/20 08:08:54;;;;;;;6.93;3.25;;;;;;;14.77;100.00;102310.22;5368433;27;20079;-80
2022/09/20 08:11:28;;;;;;;6.80;3.70;;;;;;;15.56;100.00;102317.53;5367993;27;20035;-80
2022/09/20 08:13:59;;;;;;;5.25;3.13;;;;;;;16.74;100.00;102311.06;5367939;27;20362;-80
2022/09/20 08:16:40;;;;;;;7.13;3.15;;;;;;;18.28;100.00;102310.22;5368539;27;20031;-80
2022/09/20 08:19:19;;;;;;;5.35;3.00;;;;;;;18.86;100.00;102308.75;5355618;27;20443;-80
2022/09/20 08:21:52;;;;;;;7.50;2.90;;;;;;;19.75;100.00;102309.19;5355205;27;20023;-80
2022/09/20 08:24:25;;;;;;;5.05;2.33;;;;;;;19.80;100.00;102314.13;5367773;27;20442;-80
2022/09/20 08:26:57;;;;;;;5.38;2.60;;;;;;;19.71;100.00;102306.97;5367996;27;20016;-80
2022/09/20 08:29:28;;;;;;;5.43;2.40;;;;;;;19.44;100.00;102308.94;5368298;27;20449;-80
2022/09/20 08:32:01;;;;;;;4.68;1.92;;;;;;;19.61;100.00;102313.38;5368219;27;20027;-80
2022/09/20 08:34:32;;;;;;;5.13;2.42;;;;;;;21.56;100.00;102321.50;5367278;27;20039;-80
2022/09/20 08:37:04;;;;;;;6.05;1.88;;;;;;;22.19;100.00;102314.88;5367089;27;20045;-81
2022/09/20 08:39:35;;;;;;;5.45;1.77;;;;;;;23.16;100.00;102313.19;5368107;27;20024;-81
2022/09/20 08:42:29;;;;;;;7.00;2.30;;;;;;;23.90;100.00;102314.84;5367586;27;20019;-81
2022/09/20 08:45:15;;;;;;;3.95;1.67;;;;;;;23.27;100.00;102309.16;5367627;27;20019;-81
2022/09/20 08:47:52;;;;;;;4.90;1.63;;;;;;;23.73;100.00;102315.06;5348808;27;20115;-81
2022/09/20 08:50:23;;;;;;;7.65;1.85;;;;;;;23.50;100.00;102308.97;5366867;27;20034;-81
2022/09/20 08:52:58;;;;;;;4.15;1.20;;;;;;;24.29;100.00;102318.94;5346432;27;20481;-81
2022/09/20 08:55:31;;;;;;;5.45;1.48;;;;;;;24.75;100.00;102329.34;5327346;27;20184;-81
2022/09/20 08:58:03;;;;;;;5.20;1.13;;;;;;;25.74;100.00;102328.06;5346138;27;20023;-81
2022/09/20 09:00:36;;;;;;;5.78;1.35;;;;;;;27.31;100.00;102324.69;5362414;27;20100;-81
2022/09/20 09:03:13;;;;;;;4.30;1.20;;;;;;;27.57;90.14;102322.88;5368933;27;20377;-81
2022/09/20 09:06:00;;;;;;;7.32;1.98;;;;;;;28.54;91.07;102322.50;5371581;27;20031;-81
2022/09/20 09:08:37;;;;;;;3.75;1.35;;;;;;;28.38;90.49;102315.69;5371572;27;20037;-81
2022/09/20 09:11:14;;;;;;;4.32;1.10;;;;;;;28.92;83.21;102316.81;5371389;27;20035;-81
2022/09/20 09:14:05;;;;;;;3.95;1.10;;;;;;;29.91;87.96;102327.53;5352165;27;20032;-81
2022/09/20 09:16:37;;;;;;;6.50;1.10;;;;;;;28.42;65.46;102325.16;5369684;27;20031;-82
2022/09/20 09:19:29;;;;;;;4.07;1.37;;;;;;;28.81;70.09;102315.69;5341657;27;20026;-81
2022/09/20 09:22:02;;;;;;;5.47;1.20;;;;;;;27.38;69.27;102317.28;5349466;27;20226;-79
2022/09/20 09:24:33;;;;;;;3.83;1.30;;;;;;;27.90;75.17;102314.41;5349522;27;20027;-81
2022/09/20 09:27:15;;;;;;;4.43;1.13;;;;;;;27.61;62.05;102311.25;5349041;27;20012;-81
2022/09/20 09:29:51;;;;;;;5.00;1.17;;;;;;;26.73;77.71;102312.69;5349290;27;20397;-81
2022/09/20 09:32:30;;;;;;;7.25;1.38;;;;;;;25.54;59.98;102314.34;5361000;27;20034;-78
2022/09/20 09:35:29;;;;;;;6.50;1.00;;;;;;;25.80;87.61;102316.28;5370006;27;20495;-78
2022/09/20 09:38:01;;;;;;;3.80;1.10;;;;;;;23.83;80.05;102309.34;5370660;27;20405;-78
2022/09/20 09:40:33;;;;;;;6.72;1.30;;;;;;;23.94;86.50;102305.25;5347915;27;20027;-78
2022/09/20 09:43:05;;;;;;;8.32;1.50;;;;;;;22.97;100.00;102310.00;5349014;27;20047;-81
2022/09/20 09:45:37;;;;;;;4.35;1.23;;;;;;;22.46;100.00;102318.91;5360089;27;20070;-81
2022/09/20 09:48:23;;;;;;;4.40;1.02;;;;;;;22.03;100.00;102313.16;5370801;27;20019;-81
2022/09/20 09:51:14;;;;;;;6.35;1.40;;;;;;;21.60;100.00;102315.53;5370033;27;20020;-80
2022/09/20 09:53:50;;;;;;;7.10;1.42;;;;;;;21.29;100.00;102319.06;5370716;27;20055;-80
2022/09/20 09:56:33;;;;;;;4.15;0.98;;;;;;;20.96;100.00;102315.66;5370165;27;20019;-80
2022/09/20 09:59:34;;;;;;;7.38;1.20;;;;;;;20.25;100.00;102315.47;5370543;27;20122;-80
2022/09/20 10:02:18;;;;;;;4.85;1.02;;;;;;;19.55;100.00;102324.88;5315454;27;20165;-80
2022/09/20 10:05:04;;;;;;;6.85;0.90;;;;;;;19.30;100.00;102318.53;5368258;27;20055;-80
2022/09/20 10:07:44;;;;;;;6.05;1.00;;;;;;;19.00;100.00;102322.66;5367862;27;20439;-80
2022/09/20 10:10:36;;;;;;;4.63;1.13;;;;;;;18.36;100.00;102324.81;5366676;27;20218;-80
2022/09/20 10:13:25;;;;;;;8.45;1.40;;;;;;;18.03;100.00;102329.94;5369745;27;20350;-80
2022/09/20 10:16:32;;;;;;;7.90;1.25;;;;;;;17.92;100.00;102333.72;5369221;27;20524;-80
2022/09/20 10:19:25;;;;;;;6.32;1.10;;;;;;;17.63;100.00;102325.81;5358704;27;20074;-80
2022/09/20 10:22:02;;;;;;;4.10;1.33;;;;;;;17.06;100.00;102332.25;5369349;27;20023;-80
2022/09/20 10:24:55;;;;;;;6.72;1.80;;;;;;;16.88;100.00;102334.88;5370488;27;20034;-80
2022/09/20 10:27:43;;;;;;;4.32;1.15;;;;;;;16.47;100.00;102320.78;5369588;27;20026;-80
2022/09/20 10:30:24;;;;;;;4.85;1.05;;;;;;;16.27;100.00;102325.38;5370256;27;20030;-80
2022/09/20 10:33:02;;;;;;;5.57;1.27;;;;;;;16.13;100.00;102328.47;5371397;27;20027;-79
2022/09/20 10:35:51;;;;;;;5.75;1.40;;;;;;;16.07;100.00;102319.16;5368765;27;20043;-80
2022/09/20 10:38:33;;;;;;;4.97;1.20;;;;;;;16.22;100.00;102324.97;5350359;27;20019;-79
2022/09/20 10:44:44;;;;;;;4.97;0.95;;;;;;;16.85;100.00;102327.09;5368371;27;20031;-79
2022/09/20 10:47:19;;;;;;;9.43;1.27;;;;;;;17.26;100.00;102324.91;5349702;27;20068;-79
2022/09/20 10:50:28;;;;;;;5.65;0.95;;;;;;;17.68;100.00;102326.22;5369248;27;20031;-79
2022/09/20 10:53:24;;;;;;;8.00;1.33;;;;;;;18.23;100.00;102327.91;5350518;27;20019;-80
2022/09/20 10:56:01;;;;;;;6.55;1.58;;;;;;;18.23;100.00;102331.47;5369550;27;20027;-79
2022/09/20 10:59:01;;;;;;;8.52;1.80;;;;;;;18.99;100.00;102326.38;5350077;27;20027;-79
2022/09/20 11:01:44;;;;;;;6.20;1.05;;;;;;;19.30;100.00;102326.66;5367188;27;20027;-80
2022/09/20 11:04:42;;;;;;;9.43;1.48;;;;;;;19.63;100.00;102334.88;5368586;27;25987;-80
2022/09/20 11:07:21;;;;;;;8.25;1.45;;;;;;;19.60;100.00;102332.47;5350143;27;20024;-80
2022/09/20 11:10:06;;;;;;;6.90;1.33;;;;;;;21.56;100.00;102335.06;5352925;27;20072;-80
2022/09/20 11:12:41;;;;;;;5.63;1.08;;;;;;;25.74;100.00;102333.53;5368823;27;20039;-80
2022/09/20 11:15:48;;;;;;;6.47;1.20;;;;;;;27.96;100.00;102326.41;5368377;27;20076;-80
2022/09/20 11:18:43;;;;;;;4.30;0.95;;;;;;;30.69;88.29;102338.44;5368934;27;20023;-80
2022/09/20 11:21:23;;;;;;;6.90;1.10;;;;;;;31.03;80.17;102342.22;5369004;27;20024;-81
2022/09/20 11:24:04;;;;;;;5.55;1.30;;;;;;;30.78;52.88;102339.72;5369158;27;20073;-81
2022/09/20 11:26:45;;;;;;;3.53;1.00;;;;;;;28.44;60.33;102342.25;5348606;27;20469;-80
2022/09/20 11:29:31;;;;;;;7.30;0.90;;;;;;;26.11;91.92;102353.16;5349713;27;20072;-80
2022/09/20 11:32:10;;;;;;;6.50;1.50;;;;;;;24.15;100.00;102337.91;5367927;27;20031;-80
2022/09/20 11:35:01;;;;;;;3.83;0.90;;;;;;;23.34;100.00;102335.41;5349746;27;20035;-80
2022/09/20 11:37:38;;;;;;;3.67;0.93;;;;;;;21.67;100.00;102342.81;5349699;27;20413;-80
2022/09/20 11:40:21;;;;;;;5.13;1.20;;;;;;;20.50;100.00;102345.25;5363457;27;20362;-80
2022/09/20 11:42:56;;;;;;;4.82;1.50;;;;;;;19.49;100.00;102349.03;5346935;27;20019;-80
2022/09/20 11:45:28;;;;;;;5.00;1.08;;;;;;;18.92;100.00;102341.56;5346757;27;20058;-80
2022/09/20 11:48:17;;;;;;;7.65;1.40;;;;;;;18.69;100.00;102353.72;5346859;27;20039;-80
2022/09/20 11:51:19;;;;;;;4.00;1.10;;;;;;;18.62;100.00;102351.84;5347045;27;20103;-80
2022/09/20 11:54:11;;;;;;;3.42;0.90;;;;;;;18.06;100.00;102351.25;5346908;27;20400;-80
2022/09/20 11:56:52;;;;;;;3.80;0.90;;;;;;;18.09;100.00;102351.78;5346853;27;20119;-80
2022/09/20 11:59:38;;;;;;;6.00;1.13;;;;;;;18.30;100.00;102355.97;5347186;27;20028;-79
2022/09/20 12:02:24;;;;;;;5.07;1.03;;;;;;;18.36;100.00;102352.66;5367353;27;20080;-79
2022/09/20 12:04:57;;;;;;;4.65;1.08;;;;;;;18.37;100.00;102351.63;5368084;27;20264;-79
2022/09/20 12:07:39;;;;;;;3.85;1.40;;;;;;;18.25;100.00;102355.59;5349515;27;20174;-79
2022/09/20 12:10:29;;;;;;;7.13;1.20;;;;;;;18.45;100.00;102353.56;5368295;27;20031;-79
2022/09/20 12:13:04;;;;;;;7.00;1.02;;;;;;;18.30;100.00;102355.97;5368169;27;20062;-79
2022/09/20 12:15:38;;;;;;;6.70;1.15;;;;;;;18.04;100.00;102362.19;5349058;27;20051;-79
2022/09/20 12:18:34;;;;;;;4.55;1.00;;;;;;;18.03;100.00;102357.78;5368433;27;20012;-79
2022/09/20 12:21:09;;;;;;;5.95;1.13;;;;;;;17.87;100.00;102361.19;5367903;27;20068;-78
2022/09/20 12:23:45;;;;;;;4.90;0.80;;;;;;;17.86;100.00;102353.22;5368200;27;20023;-79
2022/09/20 12:26:20;;;;;;;3.28;0.95;;;;;;;17.91;100.00;102362.56;5366993;27;20680;-79
2022/09/20 12:28:53;;;;;;;3.42;0.82;;;;;;;18.03;100.00;102367.75;5368220;27;20403;-79
2022/09/20 12:31:25;;;;;;;8.35;1.42;;;;;;;18.06;100.00;102367.44;5348041;27;20024;-79
2022/09/20 12:33:59;;;;;;;4.25;1.02;;;;;;;18.34;100.00;102365.47;5346219;27;20028;-79
2022/09/20 12:36:34;;;;;;;3.58;0.80;;;;;;;19.46;100.00;102358.34;5349581;27;20038;-79
2022/09/20 12:39:12;;;;;;;4.43;0.80;;;;;;;23.36;100.00;102357.81;5370452;27;20444;-79
2022/09/20 12:41:43;;;;;;;3.63;0.60;;;;;;;26.38;100.00;102355.88;5371817;27;20027;-79